sensor_id;sensor_type;location;lat;lon;timestamp;temperature;humidity
62904;DHT22;49000;50.698;13.322;2023-06-10T00:02:11;13.60;13.00
62904;DHT22;49000;50.698;13.322;2023-06-10T00:04:36;13.50;13.10
62904;DHT22;49000;50.698;13.322;2023-06-10T00:07:05;13.50;13.60
62904;DHT22;49000;50.698;13.322;2023-06-10T00:09:37;13.50;13.50
62904;DHT22;49000;50.698;13.322;2023-06-10T00:12:07;13.50;14.00
62904;DHT22;49000;50.698;13.322;2023-06-10T00:14:39;13.40;14.20
62904;DHT22;49000;50.698;13.322;2023-06-10T00:17:06;13.30;15.20
62904;DHT22;49000;50.698;13.322;2023-06-10T00:19:36;13.20;14.70
62904;DHT22;49000;50.698;13.322;2023-06-10T00:22:01;13.20;15.90
62904;DHT22;49000;50.698;13.322;2023-06-10T00:24:28;13.20;15.80
62904;DHT22;49000;50.698;13.322;2023-06-10T00:26:53;13.10;16.10
62904;DHT22;49000;50.698;13.322;2023-06-10T00:29:19;13.10;14.90
62904;DHT22;49000;50.698;13.322;2023-06-10T00:31:45;13.10;15.00
62904;DHT22;49000;50.698;13.322;2023-06-10T00:34:11;13.10;14.40
62904;DHT22;49000;50.698;13.322;2023-06-10T00:36:37;13.00;14.10
62904;DHT22;49000;50.698;13.322;2023-06-10T00:39:02;13.00;14.70
62904;DHT22;49000;50.698;13.322;2023-06-10T00:41:29;12.90;15.30
62904;DHT22;49000;50.698;13.322;2023-06-10T00:43:55;12.90;21.10
62904;DHT22;49000;50.698;13.322;2023-06-10T00:46:23;12.80;22.70
62904;DHT22;49000;50.698;13.322;2023-06-10T00:48:50;12.80;21.60
62904;DHT22;49000;50.698;13.322;2023-06-10T00:51:16;12.80;20.60
62904;DHT22;49000;50.698;13.322;2023-06-10T00:53:43;12.80;30.70
62904;DHT22;49000;50.698;13.322;2023-06-10T00:56:09;12.70;37.10
62904;DHT22;49000;50.698;13.322;2023-06-10T00:58:35;12.60;32.40
62904;DHT22;49000;50.698;13.322;2023-06-10T01:01:01;12.60;30.60
62904;DHT22;49000;50.698;13.322;2023-06-10T01:03:27;12.60;28.90
62904;DHT22;49000;50.698;13.322;2023-06-10T01:06:06;12.60;29.20
62904;DHT22;49000;50.698;13.322;2023-06-10T01:08:37;12.50;29.90
62904;DHT22;49000;50.698;13.322;2023-06-10T01:11:17;12.40;31.10
62904;DHT22;49000;50.698;13.322;2023-06-10T01:13:46;12.50;29.60
62904;DHT22;49000;50.698;13.322;2023-06-10T01:16:13;12.40;28.10
62904;DHT22;49000;50.698;13.322;2023-06-10T01:18:40;12.40;30.00
62904;DHT22;49000;50.698;13.322;2023-06-10T01:21:05;12.40;35.60
62904;DHT22;49000;50.698;13.322;2023-06-10T01:23:33;12.30;35.80
62904;DHT22;49000;50.698;13.322;2023-06-10T01:26:02;12.30;38.50
62904;DHT22;49000;50.698;13.322;2023-06-10T01:28:38;12.30;52.50
62904;DHT22;49000;50.698;13.322;2023-06-10T01:34:31;12.20;85.20
62904;DHT22;49000;50.698;13.322;2023-06-10T01:36:58;12.20;84.10
62904;DHT22;49000;50.698;13.322;2023-06-10T01:39:24;12.20;84.80
62904;DHT22;49000;50.698;13.322;2023-06-10T01:41:52;12.20;84.70
62904;DHT22;49000;50.698;13.322;2023-06-10T01:44:20;12.20;84.50
62904;DHT22;49000;50.698;13.322;2023-06-10T01:46:45;12.10;83.00
62904;DHT22;49000;50.698;13.322;2023-06-10T01:49:11;12.10;84.70
62904;DHT22;49000;50.698;13.322;2023-06-10T01:51:37;12.00;88.30
62904;DHT22;49000;50.698;13.322;2023-06-10T01:54:02;12.00;85.80
62904;DHT22;49000;50.698;13.322;2023-06-10T01:56:28;12.00;84.60
62904;DHT22;49000;50.698;13.322;2023-06-10T01:58:53;11.90;83.70
62904;DHT22;49000;50.698;13.322;2023-06-10T02:01:24;11.90;83.40
62904;DHT22;49000;50.698;13.322;2023-06-10T02:03:50;11.90;83.40
62904;DHT22;49000;50.698;13.322;2023-06-10T02:06:15;11.90;80.80
62904;DHT22;49000;50.698;13.322;2023-06-10T02:08:40;11.80;80.90
62904;DHT22;49000;50.698;13.322;2023-06-10T02:11:06;11.80;79.30
62904;DHT22;49000;50.698;13.322;2023-06-10T02:13:32;11.80;79.70
62904;DHT22;49000;50.698;13.322;2023-06-10T02:15:58;11.80;79.40
62904;DHT22;49000;50.698;13.322;2023-06-10T02:18:23;11.70;80.10
62904;DHT22;49000;50.698;13.322;2023-06-10T02:20:49;11.70;78.40
62904;DHT22;49000;50.698;13.322;2023-06-10T02:23:14;11.60;78.50
62904;DHT22;49000;50.698;13.322;2023-06-10T02:25:40;11.60;76.50
62904;DHT22;49000;50.698;13.322;2023-06-10T02:28:05;11.60;82.90
62904;DHT22;49000;50.698;13.322;2023-06-10T02:30:31;11.50;81.60
62904;DHT22;49000;50.698;13.322;2023-06-10T02:32:56;11.50;83.00
62904;DHT22;49000;50.698;13.322;2023-06-10T02:35:22;11.40;93.50
62904;DHT22;49000;50.698;13.322;2023-06-10T02:37:49;11.40;99.10
62904;DHT22;49000;50.698;13.322;2023-06-10T02:40:15;11.40;99.70
62904;DHT22;49000;50.698;13.322;2023-06-10T02:42:41;11.40;98.80
62904;DHT22;49000;50.698;13.322;2023-06-10T02:45:07;11.40;98.70
62904;DHT22;49000;50.698;13.322;2023-06-10T02:47:32;11.40;99.90
62904;DHT22;49000;50.698;13.322;2023-06-10T02:49:58;11.40;99.90
62904;DHT22;49000;50.698;13.322;2023-06-10T02:52:24;11.40;99.90
62904;DHT22;49000;50.698;13.322;2023-06-10T02:54:50;11.30;99.90
62904;DHT22;49000;50.698;13.322;2023-06-10T02:57:15;11.30;99.90
62904;DHT22;49000;50.698;13.322;2023-06-10T02:59:41;11.30;99.90
62904;DHT22;49000;50.698;13.322;2023-06-10T03:02:06;11.30;99.90
62904;DHT22;49000;50.698;13.322;2023-06-10T03:04:32;11.30;99.90
62904;DHT22;49000;50.698;13.322;2023-06-10T03:06:58;11.30;99.90
62904;DHT22;49000;50.698;13.322;2023-06-10T03:09:25;11.30;99.90
62904;DHT22;49000;50.698;13.322;2023-06-10T03:11:51;11.40;99.90
62904;DHT22;49000;50.698;13.322;2023-06-10T03:14:16;11.40;99.90
62904;DHT22;49000;50.698;13.322;2023-06-10T03:16:42;11.40;99.90
62904;DHT22;49000;50.698;13.322;2023-06-10T03:19:08;11.40;99.90
62904;DHT22;49000;50.698;13.322;2023-06-10T03:21:37;11.40;99.90
62904;DHT22;49000;50.698;13.322;2023-06-10T03:24:03;11.40;99.90
62904;DHT22;49000;50.698;13.322;2023-06-10T03:26:28;11.40;99.90
62904;DHT22;49000;50.698;13.322;2023-06-10T03:28:54;11.40;99.90
62904;DHT22;49000;50.698;13.322;2023-06-10T03:31:19;11.50;99.90
62904;DHT22;49000;50.698;13.322;2023-06-10T03:33:45;11.50;99.90
62904;DHT22;49000;50.698;13.322;2023-06-10T03:36:10;11.60;99.90
62904;DHT22;49000;50.698;13.322;2023-06-10T03:38:36;11.50;99.90
62904;DHT22;49000;50.698;13.322;2023-06-10T03:41:02;11.70;99.90
62904;DHT22;49000;50.698;13.322;2023-06-10T03:43:28;11.80;99.90
62904;DHT22;49000;50.698;13.322;2023-06-10T03:45:53;11.80;99.90
62904;DHT22;49000;50.698;13.322;2023-06-10T03:48:19;11.90;99.90
62904;DHT22;49000;50.698;13.322;2023-06-10T03:50:44;12.00;99.90
62904;DHT22;49000;50.698;13.322;2023-06-10T03:53:10;12.10;99.90
62904;DHT22;49000;50.698;13.322;2023-06-10T03:55:35;12.20;99.90
62904;DHT22;49000;50.698;13.322;2023-06-10T03:58:01;12.20;99.90
62904;DHT22;49000;50.698;13.322;2023-06-10T04:00:27;12.30;99.90
62904;DHT22;49000;50.698;13.322;2023-06-10T04:02:52;12.40;99.90
62904;DHT22;49000;50.698;13.322;2023-06-10T04:05:19;12.40;99.90
62904;DHT22;49000;50.698;13.322;2023-06-10T04:07:48;12.40;99.90
62904;DHT22;49000;50.698;13.322;2023-06-10T04:10:14;12.50;99.90
62904;DHT22;49000;50.698;13.322;2023-06-10T04:12:39;12.50;99.90
62904;DHT22;49000;50.698;13.322;2023-06-10T04:15:06;12.60;99.90
62904;DHT22;49000;50.698;13.322;2023-06-10T04:17:32;12.60;99.90
62904;DHT22;49000;50.698;13.322;2023-06-10T04:19:58;12.50;99.90
62904;DHT22;49000;50.698;13.322;2023-06-10T04:22:23;12.60;99.90
62904;DHT22;49000;50.698;13.322;2023-06-10T04:24:49;12.60;99.90
62904;DHT22;49000;50.698;13.322;2023-06-10T04:27:14;12.60;99.90
62904;DHT22;49000;50.698;13.322;2023-06-10T04:29:40;12.60;99.90
62904;DHT22;49000;50.698;13.322;2023-06-10T04:32:06;12.70;99.90
62904;DHT22;49000;50.698;13.322;2023-06-10T04:34:33;12.70;99.90
62904;DHT22;49000;50.698;13.322;2023-06-10T04:36:58;12.70;99.90
62904;DHT22;49000;50.698;13.322;2023-06-10T04:39:24;12.70;99.90
62904;DHT22;49000;50.698;13.322;2023-06-10T04:41:49;12.80;99.90
62904;DHT22;49000;50.698;13.322;2023-06-10T04:44:15;12.80;99.90
62904;DHT22;49000;50.698;13.322;2023-06-10T04:46:40;12.80;99.90
62904;DHT22;49000;50.698;13.322;2023-06-10T04:49:06;12.90;99.90
62904;DHT22;49000;50.698;13.322;2023-06-10T04:51:32;12.90;99.90
62904;DHT22;49000;50.698;13.322;2023-06-10T04:53:58;13.00;99.90
62904;DHT22;49000;50.698;13.322;2023-06-10T04:56:23;13.00;99.90
62904;DHT22;49000;50.698;13.322;2023-06-10T04:58:49;13.20;99.90
62904;DHT22;49000;50.698;13.322;2023-06-10T05:01:15;13.30;99.90
62904;DHT22;49000;50.698;13.322;2023-06-10T05:03:40;13.30;99.90
62904;DHT22;49000;50.698;13.322;2023-06-10T05:06:06;13.50;99.90
62904;DHT22;49000;50.698;13.322;2023-06-10T05:08:31;13.60;99.90
62904;DHT22;49000;50.698;13.322;2023-06-10T05:10:57;13.70;99.90
62904;DHT22;49000;50.698;13.322;2023-06-10T05:13:23;13.90;99.90
62904;DHT22;49000;50.698;13.322;2023-06-10T05:15:49;13.90;99.90
62904;DHT22;49000;50.698;13.322;2023-06-10T05:18:14;14.30;99.90
62904;DHT22;49000;50.698;13.322;2023-06-10T05:20:39;14.50;99.90
62904;DHT22;49000;50.698;13.322;2023-06-10T05:23:05;14.60;99.90
62904;DHT22;49000;50.698;13.322;2023-06-10T05:25:30;14.80;99.90
62904;DHT22;49000;50.698;13.322;2023-06-10T05:27:56;15.00;99.90
62904;DHT22;49000;50.698;13.322;2023-06-10T05:30:22;15.20;99.90
62904;DHT22;49000;50.698;13.322;2023-06-10T05:32:49;15.30;99.90
62904;DHT22;49000;50.698;13.322;2023-06-10T05:35:16;15.50;99.90
62904;DHT22;49000;50.698;13.322;2023-06-10T05:37:42;15.70;99.90
62904;DHT22;49000;50.698;13.322;2023-06-10T05:40:08;15.90;99.90
62904;DHT22;49000;50.698;13.322;2023-06-10T05:42:34;16.10;99.90
62904;DHT22;49000;50.698;13.322;2023-06-10T05:44:59;16.30;99.90
62904;DHT22;49000;50.698;13.322;2023-06-10T05:47:25;16.50;99.90
62904;DHT22;49000;50.698;13.322;2023-06-10T05:49:50;16.70;99.90
62904;DHT22;49000;50.698;13.322;2023-06-10T05:52:17;16.90;99.90
62904;DHT22;49000;50.698;13.322;2023-06-10T05:54:43;17.10;99.90
62904;DHT22;49000;50.698;13.322;2023-06-10T05:57:09;17.30;99.90
62904;DHT22;49000;50.698;13.322;2023-06-10T05:59:35;17.50;99.90
62904;DHT22;49000;50.698;13.322;2023-06-10T06:02:01;17.70;99.90
62904;DHT22;49000;50.698;13.322;2023-06-10T06:04:26;17.90;99.90
62904;DHT22;49000;50.698;13.322;2023-06-10T06:06:51;18.00;99.90
62904;DHT22;49000;50.698;13.322;2023-06-10T06:09:17;18.30;99.90
62904;DHT22;49000;50.698;13.322;2023-06-10T06:11:42;18.50;99.90
62904;DHT22;49000;50.698;13.322;2023-06-10T06:14:08;18.80;99.90
62904;DHT22;49000;50.698;13.322;2023-06-10T06:16:33;19.00;99.90
62904;DHT22;49000;50.698;13.322;2023-06-10T06:18:59;19.20;99.90
62904;DHT22;49000;50.698;13.322;2023-06-10T06:21:24;19.20;99.90
62904;DHT22;49000;50.698;13.322;2023-06-10T06:23:50;19.40;99.90
62904;DHT22;49000;50.698;13.322;2023-06-10T06:26:15;19.70;99.90
62904;DHT22;49000;50.698;13.322;2023-06-10T06:28:41;19.80;99.90
62904;DHT22;49000;50.698;13.322;2023-06-10T06:31:07;20.00;98.40
62904;DHT22;49000;50.698;13.322;2023-06-10T06:33:32;20.20;83.50
62904;DHT22;49000;50.698;13.322;2023-06-10T06:35:58;20.20;82.00
62904;DHT22;49000;50.698;13.322;2023-06-10T06:38:25;20.30;79.90
62904;DHT22;49000;50.698;13.322;2023-06-10T06:40:51;20.60;67.20
62904;DHT22;49000;50.698;13.322;2023-06-10T06:43:16;20.70;64.70
62904;DHT22;49000;50.698;13.322;2023-06-10T06:45:46;20.90;48.30
62904;DHT22;49000;50.698;13.322;2023-06-10T06:48:12;20.90;39.90
62904;DHT22;49000;50.698;13.322;2023-06-10T06:50:38;21.10;42.60
62904;DHT22;49000;50.698;13.322;2023-06-10T06:53:04;21.20;42.90
62904;DHT22;49000;50.698;13.322;2023-06-10T06:55:29;21.40;37.80
62904;DHT22;49000;50.698;13.322;2023-06-10T06:57:55;21.70;24.00
62904;DHT22;49000;50.698;13.322;2023-06-10T07:00:21;21.70;23.30
62904;DHT22;49000;50.698;13.322;2023-06-10T07:02:46;21.70;17.20
62904;DHT22;49000;50.698;13.322;2023-06-10T07:05:12;21.90;19.10
62904;DHT22;49000;50.698;13.322;2023-06-10T07:07:37;22.20;12.10
62904;DHT22;49000;50.698;13.322;2023-06-10T07:10:03;21.90;7.50
62904;DHT22;49000;50.698;13.322;2023-06-10T07:12:29;21.80;13.40
62904;DHT22;49000;50.698;13.322;2023-06-10T07:14:54;21.90;16.20
62904;DHT22;49000;50.698;13.322;2023-06-10T07:17:20;22.10;12.20
62904;DHT22;49000;50.698;13.322;2023-06-10T07:19:45;22.10;11.30
62904;DHT22;49000;50.698;13.322;2023-06-10T07:22:11;22.20;12.80
62904;DHT22;49000;50.698;13.322;2023-06-10T07:24:37;22.30;9.10
62904;DHT22;49000;50.698;13.322;2023-06-10T07:27:02;22.20;8.30
62904;DHT22;49000;50.698;13.322;2023-06-10T07:29:28;22.10;11.20
62904;DHT22;49000;50.698;13.322;2023-06-10T07:31:53;22.20;10.50
62904;DHT22;49000;50.698;13.322;2023-06-10T07:34:19;22.60;10.40
62904;DHT22;49000;50.698;13.322;2023-06-10T07:36:44;22.70;10.20
62904;DHT22;49000;50.698;13.322;2023-06-10T07:39:11;22.70;8.50
62904;DHT22;49000;50.698;13.322;2023-06-10T07:41:36;22.80;10.10
62904;DHT22;49000;50.698;13.322;2023-06-10T07:44:02;22.90;7.30
62904;DHT22;49000;50.698;13.322;2023-06-10T07:46:28;23.10;5.80
62904;DHT22;49000;50.698;13.322;2023-06-10T07:48:54;23.20;8.80
62904;DHT22;49000;50.698;13.322;2023-06-10T07:51:20;23.40;5.00
62904;DHT22;49000;50.698;13.322;2023-06-10T07:53:46;23.50;5.50
62904;DHT22;49000;50.698;13.322;2023-06-10T07:56:12;23.60;1.00
62904;DHT22;49000;50.698;13.322;2023-06-10T07:58:37;23.70;1.50
62904;DHT22;49000;50.698;13.322;2023-06-10T08:01:02;23.60;1.00
62904;DHT22;49000;50.698;13.322;2023-06-10T08:03:28;23.30;1.00
62904;DHT22;49000;50.698;13.322;2023-06-10T08:05:53;23.20;2.90
62904;DHT22;49000;50.698;13.322;2023-06-10T08:08:19;23.40;1.00
62904;DHT22;49000;50.698;13.322;2023-06-10T08:10:44;23.30;1.00
62904;DHT22;49000;50.698;13.322;2023-06-10T08:13:10;23.30;1.00
62904;DHT22;49000;50.698;13.322;2023-06-10T08:15:35;23.30;1.00
62904;DHT22;49000;50.698;13.322;2023-06-10T08:18:01;23.40;1.00
62904;DHT22;49000;50.698;13.322;2023-06-10T08:20:26;23.70;1.40
62904;DHT22;49000;50.698;13.322;2023-06-10T08:22:52;24.20;1.00
62904;DHT22;49000;50.698;13.322;2023-06-10T08:25:18;24.30;1.00
62904;DHT22;49000;50.698;13.322;2023-06-10T08:27:43;24.40;1.00
62904;DHT22;49000;50.698;13.322;2023-06-10T08:30:09;24.70;1.00
62904;DHT22;49000;50.698;13.322;2023-06-10T08:32:36;24.30;1.00
62904;DHT22;49000;50.698;13.322;2023-06-10T08:35:01;24.40;1.00
62904;DHT22;49000;50.698;13.322;2023-06-10T08:37:27;24.70;1.00
62904;DHT22;49000;50.698;13.322;2023-06-10T08:39:52;24.60;1.00
62904;DHT22;49000;50.698;13.322;2023-06-10T08:44:53;23.80;1.00
62904;DHT22;49000;50.698;13.322;2023-06-10T08:47:19;23.50;1.00
62904;DHT22;49000;50.698;13.322;2023-06-10T08:49:47;23.40;1.00
62904;DHT22;49000;50.698;13.322;2023-06-10T08:52:16;23.50;1.00
62904;DHT22;49000;50.698;13.322;2023-06-10T08:54:59;23.70;1.00
62904;DHT22;49000;50.698;13.322;2023-06-10T08:57:26;24.00;1.00
62904;DHT22;49000;50.698;13.322;2023-06-10T08:59:53;24.20;1.00
62904;DHT22;49000;50.698;13.322;2023-06-10T09:02:20;24.20;1.00
62904;DHT22;49000;50.698;13.322;2023-06-10T09:04:47;24.40;1.00
62904;DHT22;49000;50.698;13.322;2023-06-10T09:07:14;24.40;1.00
62904;DHT22;49000;50.698;13.322;2023-06-10T09:09:42;24.70;1.00
62904;DHT22;49000;50.698;13.322;2023-06-10T09:12:08;24.60;1.00
62904;DHT22;49000;50.698;13.322;2023-06-10T09:14:33;24.10;1.00
62904;DHT22;49000;50.698;13.322;2023-06-10T09:16:59;24.50;1.00
62904;DHT22;49000;50.698;13.322;2023-06-10T09:19:26;24.50;1.00
62904;DHT22;49000;50.698;13.322;2023-06-10T09:21:52;24.50;1.00
62904;DHT22;49000;50.698;13.322;2023-06-10T09:24:18;24.60;1.00
62904;DHT22;49000;50.698;13.322;2023-06-10T09:26:43;24.70;1.00
62904;DHT22;49000;50.698;13.322;2023-06-10T09:29:09;24.80;1.00
62904;DHT22;49000;50.698;13.322;2023-06-10T09:31:38;25.00;1.00
62904;DHT22;49000;50.698;13.322;2023-06-10T09:34:11;24.90;1.00
62904;DHT22;49000;50.698;13.322;2023-06-10T09:36:38;25.00;1.00
62904;DHT22;49000;50.698;13.322;2023-06-10T09:39:05;25.30;1.00
62904;DHT22;49000;50.698;13.322;2023-06-10T09:41:40;25.30;1.00
62904;DHT22;49000;50.698;13.322;2023-06-10T09:44:17;25.20;1.00
62904;DHT22;49000;50.698;13.322;2023-06-10T09:46:45;25.20;1.00
62904;DHT22;49000;50.698;13.322;2023-06-10T09:49:10;25.10;1.00
62904;DHT22;49000;50.698;13.322;2023-06-10T09:51:36;24.70;1.00
62904;DHT22;49000;50.698;13.322;2023-06-10T09:54:04;24.70;1.00
62904;DHT22;49000;50.698;13.322;2023-06-10T09:56:36;24.70;1.00
62904;DHT22;49000;50.698;13.322;2023-06-10T09:59:03;24.70;1.00
62904;DHT22;49000;50.698;13.322;2023-06-10T10:01:31;24.90;1.00
62904;DHT22;49000;50.698;13.322;2023-06-10T10:03:58;25.40;1.00
62904;DHT22;49000;50.698;13.322;2023-06-10T10:06:23;26.30;1.00
62904;DHT22;49000;50.698;13.322;2023-06-10T10:08:50;26.80;1.00
62904;DHT22;49000;50.698;13.322;2023-06-10T10:11:20;26.60;1.00
62904;DHT22;49000;50.698;13.322;2023-06-10T10:13:49;26.60;1.00
62904;DHT22;49000;50.698;13.322;2023-06-10T10:16:20;26.70;1.00
62904;DHT22;49000;50.698;13.322;2023-06-10T10:19:11;26.50;1.00
62904;DHT22;49000;50.698;13.322;2023-06-10T10:21:39;26.70;1.00
62904;DHT22;49000;50.698;13.322;2023-06-10T10:24:16;26.30;1.00
62904;DHT22;49000;50.698;13.322;2023-06-10T10:26:41;26.20;1.00
62904;DHT22;49000;50.698;13.322;2023-06-10T10:29:11;25.90;1.00
62904;DHT22;49000;50.698;13.322;2023-06-10T10:31:42;25.90;1.00
62904;DHT22;49000;50.698;13.322;2023-06-10T10:34:15;25.90;1.00
62904;DHT22;49000;50.698;13.322;2023-06-10T10:36:42;26.00;1.00
62904;DHT22;49000;50.698;13.322;2023-06-10T10:39:08;26.30;1.00
62904;DHT22;49000;50.698;13.322;2023-06-10T10:41:36;26.10;1.00
62904;DHT22;49000;50.698;13.322;2023-06-10T10:44:02;25.90;1.00
62904;DHT22;49000;50.698;13.322;2023-06-10T10:46:30;26.00;1.00
62904;DHT22;49000;50.698;13.322;2023-06-10T10:48:56;26.00;1.00
62904;DHT22;49000;50.698;13.322;2023-06-10T10:51:23;26.10;1.00
62904;DHT22;49000;50.698;13.322;2023-06-10T10:54:14;25.70;1.00
62904;DHT22;49000;50.698;13.322;2023-06-10T10:59:44;25.70;1.00
62904;DHT22;49000;50.698;13.322;2023-06-10T11:02:10;25.70;1.00
62904;DHT22;49000;50.698;13.322;2023-06-10T11:04:45;25.80;1.00
62904;DHT22;49000;50.698;13.322;2023-06-10T11:07:11;25.70;1.00
62904;DHT22;49000;50.698;13.322;2023-06-10T11:09:36;25.50;1.00
62904;DHT22;49000;50.698;13.322;2023-06-10T11:12:05;25.80;1.00
62904;DHT22;49000;50.698;13.322;2023-06-10T11:14:31;26.50;1.00
62904;DHT22;49000;50.698;13.322;2023-06-10T11:16:58;27.30;1.00
62904;DHT22;49000;50.698;13.322;2023-06-10T11:19:34;27.30;1.00
62904;DHT22;49000;50.698;13.322;2023-06-10T11:22:01;27.50;1.00
62904;DHT22;49000;50.698;13.322;2023-06-10T11:24:29;28.00;1.00
62904;DHT22;49000;50.698;13.322;2023-06-10T11:26:54;28.30;1.00
62904;DHT22;49000;50.698;13.322;2023-06-10T11:29:20;27.90;1.00
62904;DHT22;49000;50.698;13.322;2023-06-10T11:31:49;27.40;1.00
62904;DHT22;49000;50.698;13.322;2023-06-10T11:34:21;28.00;1.00
62904;DHT22;49000;50.698;13.322;2023-06-10T11:36:49;28.00;1.00
62904;DHT22;49000;50.698;13.322;2023-06-10T11:39:14;27.80;1.00
62904;DHT22;49000;50.698;13.322;2023-06-10T11:41:40;27.40;1.00
62904;DHT22;49000;50.698;13.322;2023-06-10T11:44:11;27.30;1.00
62904;DHT22;49000;50.698;13.322;2023-06-10T11:46:37;27.40;1.00
62904;DHT22;49000;50.698;13.322;2023-06-10T11:49:03;27.50;1.00
62904;DHT22;49000;50.698;13.322;2023-06-10T11:51:33;27.40;1.00
62904;DHT22;49000;50.698;13.322;2023-06-10T11:53:59;27.70;1.00
62904;DHT22;49000;50.698;13.322;2023-06-10T11:56:26;27.70;1.00
62904;DHT22;49000;50.698;13.322;2023-06-10T11:58:56;28.10;1.00
62904;DHT22;49000;50.698;13.322;2023-06-10T12:01:23;28.50;1.00
62904;DHT22;49000;50.698;13.322;2023-06-10T12:04:09;29.20;1.00
62904;DHT22;49000;50.698;13.322;2023-06-10T12:06:45;29.20;1.00
62904;DHT22;49000;50.698;13.322;2023-06-10T12:11:41;28.40;1.00
62904;DHT22;49000;50.698;13.322;2023-06-10T12:14:07;28.40;1.00
62904;DHT22;49000;50.698;13.322;2023-06-10T12:16:32;28.20;1.00
62904;DHT22;49000;50.698;13.322;2023-06-10T12:19:02;27.60;1.00
62904;DHT22;49000;50.698;13.322;2023-06-10T12:21:28;27.80;1.00
62904;DHT22;49000;50.698;13.322;2023-06-10T12:24:10;27.20;1.00
62904;DHT22;49000;50.698;13.322;2023-06-10T12:26:44;27.40;1.00
62904;DHT22;49000;50.698;13.322;2023-06-10T12:29:19;28.20;1.00
62904;DHT22;49000;50.698;13.322;2023-06-10T12:32:03;28.50;1.00
62904;DHT22;49000;50.698;13.322;2023-06-10T12:34:38;28.80;1.00
62904;DHT22;49000;50.698;13.322;2023-06-10T12:37:10;29.70;1.00
62904;DHT22;49000;50.698;13.322;2023-06-10T12:39:40;29.70;1.00
62904;DHT22;49000;50.698;13.322;2023-06-10T12:42:06;29.40;1.00
62904;DHT22;49000;50.698;13.322;2023-06-10T12:44:39;28.60;1.00
62904;DHT22;49000;50.698;13.322;2023-06-10T12:47:09;29.30;1.00
62904;DHT22;49000;50.698;13.322;2023-06-10T12:49:36;29.20;1.00
62904;DHT22;49000;50.698;13.322;2023-06-10T12:52:02;28.70;1.00
62904;DHT22;49000;50.698;13.322;2023-06-10T12:54:27;28.40;1.00
62904;DHT22;49000;50.698;13.322;2023-06-10T12:56:52;28.60;1.00
62904;DHT22;49000;50.698;13.322;2023-06-10T12:59:18;29.20;1.00
62904;DHT22;49000;50.698;13.322;2023-06-10T13:01:49;30.00;1.00
62904;DHT22;49000;50.698;13.322;2023-06-10T13:04:16;30.80;1.00
62904;DHT22;49000;50.698;13.322;2023-06-10T13:06:41;30.70;1.00
62904;DHT22;49000;50.698;13.322;2023-06-10T13:09:07;30.30;1.00
62904;DHT22;49000;50.698;13.322;2023-06-10T13:11:32;30.60;1.00
62904;DHT22;49000;50.698;13.322;2023-06-10T13:13:58;30.10;1.00
62904;DHT22;49000;50.698;13.322;2023-06-10T13:16:23;30.20;1.00
62904;DHT22;49000;50.698;13.322;2023-06-10T13:18:49;30.20;1.00
62904;DHT22;49000;50.698;13.322;2023-06-10T13:21:14;30.00;1.00
62904;DHT22;49000;50.698;13.322;2023-06-10T13:23:40;30.50;1.00
62904;DHT22;49000;50.698;13.322;2023-06-10T13:26:09;30.50;1.00
62904;DHT22;49000;50.698;13.322;2023-06-10T13:28:34;30.60;1.00
62904;DHT22;49000;50.698;13.322;2023-06-10T13:30:59;31.20;1.00
62904;DHT22;49000;50.698;13.322;2023-06-10T13:33:25;31.70;1.00
62904;DHT22;49000;50.698;13.322;2023-06-10T13:35:50;32.10;1.00
62904;DHT22;49000;50.698;13.322;2023-06-10T13:38:16;32.60;1.00
62904;DHT22;49000;50.698;13.322;2023-06-10T13:40:41;31.80;1.00
62904;DHT22;49000;50.698;13.322;2023-06-10T13:43:07;31.20;1.00
62904;DHT22;49000;50.698;13.322;2023-06-10T13:45:34;31.40;1.00
62904;DHT22;49000;50.698;13.322;2023-06-10T13:48:00;32.70;1.00
62904;DHT22;49000;50.698;13.322;2023-06-10T13:50:26;33.20;1.00
62904;DHT22;49000;50.698;13.322;2023-06-10T13:52:52;33.80;1.00
62904;DHT22;49000;50.698;13.322;2023-06-10T13:55:17;34.30;1.00
62904;DHT22;49000;50.698;13.322;2023-06-10T13:57:44;34.20;1.00
62904;DHT22;49000;50.698;13.322;2023-06-10T14:00:10;34.00;1.00
62904;DHT22;49000;50.698;13.322;2023-06-10T14:02:35;33.50;1.00
62904;DHT22;49000;50.698;13.322;2023-06-10T14:05:01;32.80;1.00
62904;DHT22;49000;50.698;13.322;2023-06-10T14:07:26;32.00;1.00
62904;DHT22;49000;50.698;13.322;2023-06-10T14:09:52;31.60;1.00
62904;DHT22;49000;50.698;13.322;2023-06-10T14:12:18;31.70;1.00
62904;DHT22;49000;50.698;13.322;2023-06-10T14:14:43;32.00;1.00
62904;DHT22;49000;50.698;13.322;2023-06-10T14:17:09;31.90;1.00
62904;DHT22;49000;50.698;13.322;2023-06-10T14:19:34;31.50;1.00
62904;DHT22;49000;50.698;13.322;2023-06-10T14:22:00;31.50;1.00
62904;DHT22;49000;50.698;13.322;2023-06-10T14:24:25;31.50;1.00
62904;DHT22;49000;50.698;13.322;2023-06-10T14:26:50;31.70;1.00
62904;DHT22;49000;50.698;13.322;2023-06-10T14:29:16;32.30;1.00
62904;DHT22;49000;50.698;13.322;2023-06-10T14:31:43;33.20;1.00
62904;DHT22;49000;50.698;13.322;2023-06-10T14:34:08;34.00;1.00
62904;DHT22;49000;50.698;13.322;2023-06-10T14:36:34;34.30;1.00
62904;DHT22;49000;50.698;13.322;2023-06-10T14:39:00;33.30;1.00
62904;DHT22;49000;50.698;13.322;2023-06-10T14:41:25;33.10;1.00
62904;DHT22;49000;50.698;13.322;2023-06-10T14:43:51;32.80;1.00
62904;DHT22;49000;50.698;13.322;2023-06-10T14:46:17;32.40;1.00
62904;DHT22;49000;50.698;13.322;2023-06-10T14:48:42;32.00;1.00
62904;DHT22;49000;50.698;13.322;2023-06-10T14:51:08;32.00;1.00
62904;DHT22;49000;50.698;13.322;2023-06-10T14:53:33;31.80;1.00
62904;DHT22;49000;50.698;13.322;2023-06-10T14:55:59;32.40;1.00
62904;DHT22;49000;50.698;13.322;2023-06-10T14:58:24;33.10;1.00
62904;DHT22;49000;50.698;13.322;2023-06-10T15:00:50;32.90;1.00
62904;DHT22;49000;50.698;13.322;2023-06-10T15:03:16;33.70;1.00
62904;DHT22;49000;50.698;13.322;2023-06-10T15:05:41;33.90;1.00
62904;DHT22;49000;50.698;13.322;2023-06-10T15:08:07;33.70;1.00
62904;DHT22;49000;50.698;13.322;2023-06-10T15:10:33;33.40;1.00
62904;DHT22;49000;50.698;13.322;2023-06-10T15:12:58;33.70;1.00
62904;DHT22;49000;50.698;13.322;2023-06-10T15:15:24;34.10;1.00
62904;DHT22;49000;50.698;13.322;2023-06-10T15:17:52;34.50;1.00
62904;DHT22;49000;50.698;13.322;2023-06-10T15:20:18;34.10;1.00
62904;DHT22;49000;50.698;13.322;2023-06-10T15:22:43;34.30;1.00
62904;DHT22;49000;50.698;13.322;2023-06-10T15:25:09;34.00;1.00
62904;DHT22;49000;50.698;13.322;2023-06-10T15:27:34;32.70;1.00
62904;DHT22;49000;50.698;13.322;2023-06-10T15:30:00;32.60;1.00
62904;DHT22;49000;50.698;13.322;2023-06-10T15:32:25;33.30;1.00